Time;durP1;ratioP1;P1;durP2;ratioP2;P2;SDS_P1;SDS_P2;PMS_P1;PMS_P2;Temp;Humidity;BMP_temperature;BMP_pressure;BME280_temperature;BME280_humidity;BME280_pressure;Samples;Min_cycle;Max_cycle;Signal;HPM_P1;HPM_P2
2022/01/31 00:01:33;;;;;;;9.93;4.47;;;;;;;;;;5050857;28;20447;-69
2022/01/31 00:04:00;;;;;;;8.93;3.77;;;;;;;;;;5051905;28;20459;-70
2022/01/31 00:06:27;;;;;;;7.00;3.33;;;;;;;;;;5050902;28;20457;-70
2022/01/31 00:08:56;;;;;;;10.17;4.00;;;;;;;;;;5051125;28;21021;-70
2022/01/31 00:11:23;;;;;;;16.37;4.93;;;;;;;;;;5050980;28;20453;-69
2022/01/31 00:13:59;;;;;;;6.97;3.97;;;;;;;;;;5051617;28;20453;-69
2022/01/31 00:16:32;;;;;;;6.27;3.23;;;;;;;;;;5050330;28;20450;-69
2022/01/31 00:18:59;;;;;;;4.33;2.63;;;;;;;;;;5051595;28;20496;-70
2022/01/31 00:21:26;;;;;;;11.47;3.27;;;;;;;;;;5050569;28;20496;-69
2022/01/31 00:23:53;;;;;;;5.90;3.07;;;;;;;;;;5051093;28;20532;-70
2022/01/31 00:26:22;;;;;;;6.23;3.63;;;;;;;;;;5050294;28;20449;-69
2022/01/31 00:28:49;;;;;;;8.00;3.70;;;;;;;;;;5051547;28;20564;-69
2022/01/31 00:31:16;;;;;;;6.27;3.27;;;;;;;;;;5050680;28;20531;-68
2022/01/31 00:33:44;;;;;;;5.10;3.67;;;;;;;;;;5051034;28;20509;-69
2022/01/31 00:36:11;;;;;;;10.70;4.33;;;;;;;;;;5050946;28;20446;-69
2022/01/31 00:38:38;;;;;;;6.97;3.33;;;;;;;;;;5050387;28;20456;-70
2022/01/31 00:41:05;;;;;;;10.00;3.03;;;;;;;;;;5050920;28;20447;-69
2022/01/31 00:43:36;;;;;;;5.57;2.90;;;;;;;;;;5050528;28;20810;-69
2022/01/31 00:46:10;;;;;;;8.27;3.10;;;;;;;;;;5051284;28;20446;-69
2022/01/31 00:48:42;;;;;;;11.80;3.10;;;;;;;;;;5049978;28;20965;-69
2022/01/31 00:51:09;;;;;;;6.23;3.10;;;;;;;;;;5050768;28;20538;-70
2022/01/31 00:53:37;;;;;;;6.20;3.37;;;;;;;;;;5050401;28;20611;-69
2022/01/31 00:56:04;;;;;;;18.70;4.93;;;;;;;;;;5051031;28;20450;-69
2022/01/31 00:58:31;;;;;;;9.23;3.50;;;;;;;;;;5049962;28;20946;-70
2022/01/31 01:00:59;;;;;;;9.83;3.60;;;;;;;;;;5049880;28;20447;-70
2022/01/31 01:03:27;;;;;;;7.53;3.73;;;;;;;;;;5049751;28;20461;-69
2022/01/31 01:05:54;;;;;;;8.57;3.97;;;;;;;;;;5050472;28;20882;-70
2022/01/31 01:08:21;;;;;;;4.77;3.37;;;;;;;;;;5048999;28;20486;-69
2022/01/31 01:10:49;;;;;;;7.83;3.30;;;;;;;;;;5050098;28;20573;-70
2022/01/31 01:13:16;;;;;;;8.10;3.80;;;;;;;;;;5050891;28;20442;-70
2022/01/31 01:15:43;;;;;;;5.80;3.73;;;;;;;;;;5050367;28;20451;-69
2022/01/31 01:18:11;;;;;;;7.60;4.00;;;;;;;;;;5050499;28;20968;-70
2022/01/31 01:20:39;;;;;;;11.27;3.50;;;;;;;;;;5049505;28;20442;-70
2022/01/31 01:23:06;;;;;;;5.73;3.03;;;;;;;;;;5050415;28;20454;-70
2022/01/31 01:25:33;;;;;;;8.67;3.67;;;;;;;;;;5049356;28;20533;-70
2022/01/31 01:28:00;;;;;;;8.73;4.00;;;;;;;;;;5050477;28;20757;-70
2022/01/31 01:30:28;;;;;;;6.00;3.63;;;;;;;;;;5048813;28;20560;-70
2022/01/31 01:33:04;;;;;;;7.63;4.40;;;;;;;;;;5050284;28;20485;-70
2022/01/31 01:35:35;;;;;;;6.60;3.03;;;;;;;;;;5038476;28;20516;-70
2022/01/31 01:38:06;;;;;;;5.60;3.47;;;;;;;;;;5050267;28;20462;-70
2022/01/31 01:40:34;;;;;;;8.20;3.30;;;;;;;;;;5049409;28;20450;-70
2022/01/31 01:43:01;;;;;;;15.60;4.50;;;;;;;;;;5050167;28;20473;-70
2022/01/31 01:45:28;;;;;;;5.87;3.20;;;;;;;;;;5049455;28;20965;-70
2022/01/31 01:47:55;;;;;;;6.50;3.40;;;;;;;;;;5050076;28;20456;-70
2022/01/31 01:50:22;;;;;;;9.17;3.60;;;;;;;;;;5048933;28;20509;-69
2022/01/31 01:52:52;;;;;;;9.67;4.10;;;;;;;;;;5049916;28;20897;-69
2022/01/31 01:55:20;;;;;;;13.20;3.73;;;;;;;;;;5049984;28;20457;-68
2022/01/31 01:57:47;;;;;;;12.87;4.33;;;;;;;;;;5050347;28;20596;-70
2022/01/31 02:00:18;;;;;;;5.77;4.23;;;;;;;;;;5049022;28;20855;-69
2022/01/31 02:02:45;;;;;;;6.23;3.60;;;;;;;;;;5050065;28;20466;-70
2022/01/31 02:05:13;;;;;;;8.00;3.63;;;;;;;;;;5050150;28;20457;-69
2022/01/31 02:07:40;;;;;;;9.43;4.80;;;;;;;;;;5048891;28;20479;-70
2022/01/31 02:10:09;;;;;;;11.20;3.57;;;;;;;;;;5050078;28;20480;-70
2022/01/31 02:12:40;;;;;;;7.63;3.03;;;;;;;;;;5036418;28;20505;-70
2022/01/31 02:15:08;;;;;;;6.40;2.83;;;;;;;;;;5050429;28;20919;-69
2022/01/31 02:17:35;;;;;;;10.30;4.37;;;;;;;;;;5048938;28;20459;-70
2022/01/31 02:20:02;;;;;;;13.03;3.67;;;;;;;;;;5051078;28;20442;-70
2022/01/31 02:22:31;;;;;;;8.97;3.60;;;;;;;;;;5052562;28;20456;-70
2022/01/31 02:24:58;;;;;;;6.53;3.70;;;;;;;;;;5054071;28;20456;-70
2022/01/31 02:27:26;;;;;;;8.60;3.80;;;;;;;;;;5053087;28;20455;-70
2022/01/31 02:29:54;;;;;;;8.80;3.80;;;;;;;;;;5053298;28;20484;-70
2022/01/31 02:32:22;;;;;;;10.37;4.10;;;;;;;;;;5052754;28;20446;-68
2022/01/31 02:34:49;;;;;;;12.87;4.40;;;;;;;;;;5053679;28;20452;-70
2022/01/31 02:37:16;;;;;;;11.60;3.40;;;;;;;;;;5053845;28;20457;-70
2022/01/31 02:39:45;;;;;;;6.73;3.57;;;;;;;;;;5052415;28;20493;-70
2022/01/31 02:42:12;;;;;;;7.63;4.10;;;;;;;;;;5053421;28;20447;-70
2022/01/31 02:44:41;;;;;;;4.20;3.30;;;;;;;;;;5052701;28;21135;-69
2022/01/31 02:47:11;;;;;;;8.43;3.60;;;;;;;;;;5053380;28;20450;-70
2022/01/31 02:49:47;;;;;;;9.70;3.83;;;;;;;;;;5052626;28;20557;-70
2022/01/31 02:52:15;;;;;;;10.03;3.97;;;;;;;;;;5053383;28;20922;-70
2022/01/31 02:54:42;;;;;;;9.33;3.97;;;;;;;;;;5052501;28;20458;-69
2022/01/31 02:57:11;;;;;;;10.03;5.53;;;;;;;;;;5053337;28;20453;-70
2022/01/31 02:59:38;;;;;;;4.30;3.00;;;;;;;;;;5052451;28;20458;-69
2022/01/31 03:02:06;;;;;;;5.40;3.47;;;;;;;;;;5052888;28;20468;-69
2022/01/31 03:04:33;;;;;;;10.93;4.20;;;;;;;;;;5049723;28;20981;-69
2022/01/31 03:07:00;;;;;;;6.37;3.23;;;;;;;;;;5052647;28;20979;-69
2022/01/31 03:09:27;;;;;;;12.07;3.23;;;;;;;;;;5052020;28;20564;-69
2022/01/31 03:11:55;;;;;;;8.50;3.23;;;;;;;;;;5052682;28;20452;-70
2022/01/31 03:14:23;;;;;;;7.10;3.00;;;;;;;;;;5051879;28;20485;-69
2022/01/31 03:16:50;;;;;;;7.23;3.23;;;;;;;;;;5052114;28;20821;-70
2022/01/31 03:19:18;;;;;;;7.27;3.47;;;;;;;;;;5052667;28;20450;-68
2022/01/31 03:21:46;;;;;;;7.73;3.70;;;;;;;;;;5051729;28;20538;-69
2022/01/31 03:24:14;;;;;;;9.67;3.37;;;;;;;;;;5052409;28;20447;-69
2022/01/31 03:26:42;;;;;;;7.57;4.47;;;;;;;;;;5051983;28;20737;-69
2022/01/31 03:29:09;;;;;;;7.83;4.50;;;;;;;;;;5052571;28;20533;-69
2022/01/31 03:31:37;;;;;;;5.63;3.10;;;;;;;;;;5049925;28;20484;-69
2022/01/31 03:34:05;;;;;;;13.27;4.07;;;;;;;;;;5051815;28;20438;-70
2022/01/31 03:36:32;;;;;;;11.50;3.60;;;;;;;;;;5051543;28;20461;-69
2022/01/31 03:38:59;;;;;;;7.97;3.57;;;;;;;;;;5052006;28;20620;-69
2022/01/31 03:41:26;;;;;;;8.10;4.13;;;;;;;;;;5051384;28;20478;-69
2022/01/31 03:43:54;;;;;;;6.07;3.57;;;;;;;;;;5052162;28;20947;-70
2022/01/31 03:46:22;;;;;;;11.43;3.40;;;;;;;;;;5051207;28;20536;-68
2022/01/31 03:48:51;;;;;;;6.97;4.03;;;;;;;;;;5052139;28;20545;-70
2022/01/31 03:51:19;;;;;;;6.57;3.60;;;;;;;;;;5051382;28;20478;-68
2022/01/31 03:53:47;;;;;;;9.77;4.27;;;;;;;;;;5052553;28;20446;-70
2022/01/31 03:56:14;;;;;;;9.00;3.40;;;;;;;;;;5051641;28;20450;-69
2022/01/31 03:58:41;;;;;;;7.73;3.77;;;;;;;;;;5051117;28;21095;-69
2022/01/31 04:01:08;;;;;;;9.67;3.97;;;;;;;;;;5051478;28;20442;-69
2022/01/31 04:03:36;;;;;;;5.70;3.20;;;;;;;;;;5051184;28;20452;-70
2022/01/31 04:06:04;;;;;;;7.80;2.93;;;;;;;;;;5052001;28;20859;-70
2022/01/31 04:08:31;;;;;;;9.20;3.40;;;;;;;;;;5051084;28;20899;-69
2022/01/31 04:10:59;;;;;;;13.93;4.70;;;;;;;;;;5038142;28;20493;-70
2022/01/31 04:13:26;;;;;;;8.43;4.13;;;;;;;;;;5051018;28;20821;-70
2022/01/31 04:15:54;;;;;;;7.60;3.20;;;;;;;;;;5051447;28;20543;-69
2022/01/31 04:18:21;;;;;;;8.53;3.67;;;;;;;;;;5050788;28;20450;-68
2022/01/31 04:20:48;;;;;;;8.30;3.30;;;;;;;;;;5051203;28;20450;-69
2022/01/31 04:23:19;;;;;;;6.70;4.10;;;;;;;;;;5051302;28;20449;-69
2022/01/31 04:25:53;;;;;;;8.90;4.07;;;;;;;;;;5051489;28;20450;-69
2022/01/31 04:28:23;;;;;;;5.00;3.30;;;;;;;;;;5051185;28;20522;-68
2022/01/31 04:30:55;;;;;;;8.17;3.70;;;;;;;;;;5050588;28;20977;-70
2022/01/31 04:33:22;;;;;;;3.23;2.63;;;;;;;;;;5050615;28;20970;-68
2022/01/31 04:35:50;;;;;;;8.73;3.27;;;;;;;;;;5051325;28;20442;-69
2022/01/31 04:38:19;;;;;;;6.30;3.40;;;;;;;;;;5051030;28;20549;-70
2022/01/31 04:40:46;;;;;;;8.60;4.00;;;;;;;;;;5050344;28;20550;-69
2022/01/31 04:43:13;;;;;;;9.40;3.30;;;;;;;;;;5051148;28;20570;-69
2022/01/31 04:45:46;;;;;;;10.67;4.20;;;;;;;;;;5053436;28;20603;-68
2022/01/31 04:48:14;;;;;;;8.83;3.67;;;;;;;;;;5050439;28;20446;-69
2022/01/31 04:50:41;;;;;;;8.13;3.13;;;;;;;;;;5050229;28;20474;-69
2022/01/31 04:53:08;;;;;;;5.40;2.70;;;;;;;;;;5050936;28;20954;-69
2022/01/31 04:55:37;;;;;;;5.50;3.67;;;;;;;;;;5049225;28;20450;-70
2022/01/31 04:58:04;;;;;;;6.23;3.30;;;;;;;;;;5050959;28;20443;-70
2022/01/31 05:00:32;;;;;;;6.57;3.07;;;;;;;;;;5049987;28;20457;-69
2022/01/31 05:02:59;;;;;;;8.20;3.80;;;;;;;;;;5056999;28;20448;-70
2022/01/31 05:05:26;;;;;;;4.60;2.30;;;;;;;;;;5064334;28;20485;-72
2022/01/31 05:07:55;;;;;;;6.70;3.33;;;;;;;;;;5058154;28;20478;-72
2022/01/31 05:10:22;;;;;;;7.33;4.73;;;;;;;;;;5050452;28;20474;-69
2022/01/31 05:12:51;;;;;;;7.80;3.90;;;;;;;;;;5051201;28;20461;-71
2022/01/31 05:15:19;;;;;;;9.73;2.60;;;;;;;;;;5050389;28;20530;-69
2022/01/31 05:17:46;;;;;;;5.20;2.87;;;;;;;;;;5051180;28;20450;-72
2022/01/31 05:20:13;;;;;;;7.93;3.77;;;;;;;;;;5050538;28;20589;-69
2022/01/31 05:22:40;;;;;;;12.27;3.00;;;;;;;;;;5050097;28;20471;-71
2022/01/31 05:25:08;;;;;;;6.80;4.00;;;;;;;;;;5050895;28;20553;-71
2022/01/31 05:27:35;;;;;;;7.67;4.30;;;;;;;;;;5049985;28;20442;-69
2022/01/31 05:30:04;;;;;;;10.23;4.67;;;;;;;;;;5050332;28;20453;-70
2022/01/31 05:32:32;;;;;;;12.73;3.20;;;;;;;;;;5049505;28;20453;-69
2022/01/31 05:35:01;;;;;;;10.20;4.60;;;;;;;;;;5050403;28;20477;-71
2022/01/31 05:37:28;;;;;;;5.43;2.90;;;;;;;;;;5049956;28;20795;-70
2022/01/31 05:39:55;;;;;;;4.50;2.80;;;;;;;;;;5050094;28;20957;-70
2022/01/31 05:42:22;;;;;;;7.07;2.80;;;;;;;;;;5050225;28;20452;-68
2022/01/31 05:44:49;;;;;;;6.90;2.83;;;;;;;;;;5050618;28;20537;-71
2022/01/31 05:47:18;;;;;;;8.80;3.13;;;;;;;;;;5050301;28;20530;-76
2022/01/31 05:49:45;;;;;;;3.23;2.63;;;;;;;;;;5049303;28;20448;-71
2022/01/31 05:52:13;;;;;;;4.30;2.60;;;;;;;;;;5050589;28;20577;-71
2022/01/31 05:54:41;;;;;;;7.00;2.50;;;;;;;;;;5050570;28;20934;-70
2022/01/31 05:57:09;;;;;;;4.43;2.60;;;;;;;;;;5054475;28;20490;-71
2022/01/31 05:59:36;;;;;;;7.80;2.47;;;;;;;;;;5053499;28;20450;-71
2022/01/31 06:02:03;;;;;;;5.33;2.23;;;;;;;;;;5054338;28;20451;-71
2022/01/31 06:04:32;;;;;;;4.03;2.20;;;;;;;;;;5053495;28;20493;-71
2022/01/31 06:07:00;;;;;;;6.70;3.63;;;;;;;;;;5054199;28;20529;-71
2022/01/31 06:09:28;;;;;;;9.93;2.60;;;;;;;;;;5052698;28;20478;-70
2022/01/31 06:11:55;;;;;;;9.17;3.07;;;;;;;;;;5054274;28;20512;-70
2022/01/31 06:14:22;;;;;;;7.17;3.17;;;;;;;;;;5053617;28;21014;-68
2022/01/31 06:16:49;;;;;;;5.23;2.50;;;;;;;;;;5054061;28;20516;-71
2022/01/31 06:19:16;;;;;;;6.87;3.07;;;;;;;;;;5053821;28;20930;-71
2022/01/31 06:21:45;;;;;;;10.13;3.30;;;;;;;;;;5053371;28;20464;-72
2022/01/31 06:24:14;;;;;;;8.47;3.50;;;;;;;;;;5053862;28;20533;-71
2022/01/31 06:26:42;;;;;;;8.00;2.80;;;;;;;;;;5053255;28;20449;-71
2022/01/31 06:29:09;;;;;;;9.57;3.33;;;;;;;;;;5054050;28;21022;-71
2022/01/31 06:31:36;;;;;;;7.90;3.30;;;;;;;;;;5052794;28;20480;-71
2022/01/31 06:34:04;;;;;;;5.73;2.30;;;;;;;;;;5053931;28;20462;-72
2022/01/31 06:36:31;;;;;;;6.43;2.63;;;;;;;;;;5052940;28;21068;-71
2022/01/31 06:39:00;;;;;;;5.13;2.30;;;;;;;;;;5053872;28;20457;-72
2022/01/31 06:41:28;;;;;;;6.30;3.40;;;;;;;;;;5052946;28;20450;-72
2022/01/31 06:43:56;;;;;;;5.90;3.00;;;;;;;;;;5053713;28;20457;-72
2022/01/31 06:46:23;;;;;;;6.43;2.70;;;;;;;;;;5053293;28;20454;-69
2022/01/31 06:48:50;;;;;;;8.87;2.90;;;;;;;;;;5053437;28;20476;-72
2022/01/31 06:51:17;;;;;;;8.97;3.70;;;;;;;;;;5053470;28;20481;-72
2022/01/31 06:53:48;;;;;;;10.90;2.90;;;;;;;;;;5052698;28;20458;-72
2022/01/31 06:56:17;;;;;;;7.37;3.63;;;;;;;;;;5053309;28;20446;-70
2022/01/31 06:58:44;;;;;;;7.50;3.20;;;;;;;;;;5052613;28;20448;-69
2022/01/31 07:01:11;;;;;;;6.37;3.40;;;;;;;;;;5053381;28;20478;-69
2022/01/31 07:03:40;;;;;;;4.87;2.40;;;;;;;;;;5052692;28;20554;-68
2022/01/31 07:06:07;;;;;;;7.20;3.67;;;;;;;;;;5052300;28;20466;-69
2022/01/31 07:08:35;;;;;;;12.23;3.40;;;;;;;;;;5051794;28;20481;-68
2022/01/31 07:11:02;;;;;;;7.83;3.27;;;;;;;;;;5052943;28;21029;-69
2022/01/31 07:13:38;;;;;;;5.57;3.30;;;;;;;;;;5052406;28;20842;-68
2022/01/31 07:16:06;;;;;;;8.23;3.37;;;;;;;;;;5053045;28;20532;-68
2022/01/31 07:18:34;;;;;;;11.20;5.80;;;;;;;;;;5051506;28;20978;-69
2022/01/31 07:21:02;;;;;;;4.80;2.97;;;;;;;;;;5053170;28;20461;-69
2022/01/31 07:23:39;;;;;;;10.10;3.13;;;;;;;;;;5051902;28;20458;-69
2022/01/31 07:26:06;;;;;;;10.10;3.20;;;;;;;;;;5052881;28;20955;-68
2022/01/31 07:28:35;;;;;;;6.00;2.63;;;;;;;;;;5051469;28;20455;-67
2022/01/31 07:31:02;;;;;;;6.57;3.60;;;;;;;;;;5052971;28;20486;-68
2022/01/31 07:33:29;;;;;;;5.17;2.90;;;;;;;;;;5051882;28;20472;-67
2022/01/31 07:35:56;;;;;;;5.70;3.33;;;;;;;;;;5053047;28;20454;-68
2022/01/31 07:38:24;;;;;;;7.57;3.10;;;;;;;;;;5051658;28;20476;-67
2022/01/31 07:40:57;;;;;;;2.93;1.90;;;;;;;;;;5052820;28;20541;-68
2022/01/31 07:43:24;;;;;;;7.43;3.40;;;;;;;;;;5051890;28;20790;-68
2022/01/31 07:45:53;;;;;;;4.90;2.80;;;;;;;;;;5052559;28;20455;-68
2022/01/31 07:48:20;;;;;;;13.70;2.50;;;;;;;;;;5051876;28;20459;-67
2022/01/31 07:50:47;;;;;;;3.03;1.87;;;;;;;;;;5056465;28;20530;-68
2022/01/31 07:53:14;;;;;;;5.50;1.97;;;;;;;;;;5061286;28;20514;-68
2022/01/31 07:55:41;;;;;;;4.40;2.67;;;;;;;;;;5057245;28;20488;-67
2022/01/31 07:58:08;;;;;;;2.10;1.67;;;;;;;;;;5052939;28;20476;-68
2022/01/31 08:00:36;;;;;;;3.47;2.03;;;;;;;;;;5051969;28;20445;-67
2022/01/31 08:03:04;;;;;;;2.63;1.43;;;;;;;;;;5052651;28;20457;-66
2022/01/31 08:05:31;;;;;;;6.33;2.47;;;;;;;;;;5051762;28;20881;-66
2022/01/31 08:07:59;;;;;;;3.63;2.20;;;;;;;;;;5051679;28;20836;-65
2022/01/31 08:10:26;;;;;;;3.93;1.90;;;;;;;;;;5051076;28;20942;-66
2022/01/31 08:12:55;;;;;;;7.97;2.00;;;;;;;;;;5052343;28;20489;-66
2022/01/31 08:15:26;;;;;;;2.27;1.43;;;;;;;;;;5051676;28;20842;-65
2022/01/31 08:17:53;;;;;;;1.67;1.30;;;;;;;;;;5051048;28;20988;-66
2022/01/31 08:20:22;;;;;;;5.67;1.63;;;;;;;;;;5051947;28;20545;-65
2022/01/31 08:22:49;;;;;;;2.03;1.30;;;;;;;;;;5051638;28;20952;-66
2022/01/31 08:25:16;;;;;;;3.20;1.30;;;;;;;;;;5051537;28;20453;-66
2022/01/31 08:27:45;;;;;;;4.93;1.30;;;;;;;;;;5050756;28;20818;-66
2022/01/31 08:30:18;;;;;;;2.03;1.43;;;;;;;;;;5051730;28;20442;-66
2022/01/31 08:32:57;;;;;;;1.77;1.37;;;;;;;;;;5051010;28;20860;-66
2022/01/31 08:38:11;;;;;;;3.77;1.70;;;;;;;;;;5050931;28;20447;-67
2022/01/31 08:40:39;;;;;;;2.90;1.50;;;;;;;;;;5050582;28;20957;-66
2022/01/31 08:43:06;;;;;;;3.70;1.70;;;;;;;;;;5051607;28;20460;-69
2022/01/31 08:45:34;;;;;;;2.33;1.33;;;;;;;;;;5050507;28;20450;-66
2022/01/31 08:48:01;;;;;;;2.00;1.20;;;;;;;;;;5050499;28;20445;-66
2022/01/31 08:50:30;;;;;;;1.47;1.00;;;;;;;;;;5050369;28;20450;-66
2022/01/31 08:52:58;;;;;;;1.97;1.10;;;;;;;;;;5050883;28;20588;-67
2022/01/31 08:55:25;;;;;;;0.97;0.80;;;;;;;;;;5050271;28;20489;-66
2022/01/31 08:57:55;;;;;;;1.77;1.07;;;;;;;;;;5050838;28;20861;-67
2022/01/31 09:00:32;;;;;;;1.10;0.90;;;;;;;;;;5050763;28;20488;-65
2022/01/31 09:03:02;;;;;;;1.17;0.80;;;;;;;;;;5051074;28;20537;-67
2022/01/31 09:05:30;;;;;;;2.50;1.10;;;;;;;;;;5050240;28;20450;-66
2022/01/31 09:07:57;;;;;;;1.67;1.10;;;;;;;;;;5050475;28;20500;-67
2022/01/31 09:10:25;;;;;;;2.10;1.10;;;;;;;;;;5050196;28;20808;-66
2022/01/31 09:12:52;;;;;;;2.37;1.07;;;;;;;;;;5051073;28;20514;-67
2022/01/31 09:15:19;;;;;;;1.20;0.90;;;;;;;;;;5050999;28;20445;-67
2022/01/31 09:17:46;;;;;;;1.83;1.00;;;;;;;;;;5050246;28;20448;-67
2022/01/31 09:20:13;;;;;;;2.47;1.90;;;;;;;;;;5050779;28;20879;-69
2022/01/31 09:22:43;;;;;;;1.20;1.10;;;;;;;;;;5050058;28;20934;-70
2022/01/31 09:25:10;;;;;;;1.40;1.30;;;;;;;;;;5051064;28;20450;-70
2022/01/31 09:27:37;;;;;;;2.47;1.10;;;;;;;;;;5050071;28;20477;-67
2022/01/31 09:30:05;;;;;;;1.67;1.30;;;;;;;;;;5049801;28;20508;-70
2022/01/31 09:32:32;;;;;;;1.33;1.00;;;;;;;;;;5049872;28;20573;-67
2022/01/31 09:34:59;;;;;;;2.53;1.43;;;;;;;;;;5050740;28;20465;-67
2022/01/31 09:37:26;;;;;;;1.77;1.03;;;;;;;;;;5049226;28;20541;-67
2022/01/31 09:40:02;;;;;;;1.73;1.30;;;;;;;;;;5050752;28;20489;-67
2022/01/31 09:42:35;;;;;;;1.40;1.10;;;;;;;;;;5049748;28;20446;-67
2022/01/31 09:45:17;;;;;;;1.33;0.80;;;;;;;;;;5050523;28;20953;-67
2022/01/31 09:50:28;;;;;;;1.33;0.80;;;;;;;;;;5049763;28;20429;-67
2022/01/31 09:52:56;;;;;;;1.70;0.90;;;;;;;;;;5050250;28;21056;-67
2022/01/31 09:55:25;;;;;;;2.37;1.10;;;;;;;;;;5049814;28;20446;-65
2022/01/31 09:57:53;;;;;;;2.87;1.33;;;;;;;;;;5049873;28;20503;-67
2022/01/31 10:00:20;;;;;;;0.93;0.77;;;;;;;;;;5050649;28;20808;-68
2022/01/31 10:03:02;;;;;;;1.83;1.37;;;;;;;;;;5049792;28;20482;-69
2022/01/31 10:05:30;;;;;;;1.73;1.20;;;;;;;;;;5049658;28;20450;-70
2022/01/31 10:08:08;;;;;;;4.23;1.23;;;;;;;;;;5049780;28;20484;-70
2022/01/31 10:10:39;;;;;;;1.87;1.00;;;;;;;;;;5049840;28;20446;-68
2022/01/31 10:19:01;;;;;;;2.77;1.33;;;;;;;;;;5049774;28;20841;-68
2022/01/31 10:21:28;;;;;;;1.93;1.03;;;;;;;;;;5049740;28;20456;-68
2022/01/31 10:23:55;;;;;;;3.67;1.40;;;;;;;;;;5050313;28;20442;-68
2022/01/31 10:26:33;;;;;;;2.53;1.20;;;;;;;;;;5050116;28;20822;-66
2022/01/31 10:29:11;;;;;;;1.43;1.10;;;;;;;;;;5049815;28;20957;-68
2022/01/31 10:31:38;;;;;;;4.00;1.17;;;;;;;;;;5049555;28;20473;-68
2022/01/31 10:34:14;;;;;;;2.43;1.30;;;;;;;;;;5050238;28;20501;-68
2022/01/31 10:36:42;;;;;;;2.83;0.83;;;;;;;;;;5049915;28;20438;-68
2022/01/31 10:39:14;;;;;;;1.23;1.10;;;;;;;;;;5056537;28;20470;-67
2022/01/31 10:53:07;;;;;;;4.00;1.20;;;;;;;;;;5053605;28;20464;-71
2022/01/31 10:55:35;;;;;;;3.37;1.50;;;;;;;;;;5053069;28;20453;-71
2022/01/31 10:58:04;;;;;;;2.13;1.00;;;;;;;;;;5039807;28;20454;-71
2022/01/31 11:00:35;;;;;;;2.00;1.10;;;;;;;;;;5052575;28;20537;-70
2022/01/31 11:03:22;;;;;;;3.47;1.37;;;;;;;;;;5053136;28;20938;-71
2022/01/31 11:05:50;;;;;;;4.07;1.53;;;;;;;;;;5052868;28;20529;-71
2022/01/31 11:08:17;;;;;;;1.13;0.90;;;;;;;;;;5052593;28;20488;-71
2022/01/31 11:10:45;;;;;;;3.50;1.20;;;;;;;;;;5052174;28;20557;-71
2022/01/31 11:13:14;;;;;;;3.93;1.73;;;;;;;;;;5052920;28;20569;-71
2022/01/31 11:15:42;;;;;;;3.90;0.80;;;;;;;;;;5052720;28;21122;-71
2022/01/31 11:18:09;;;;;;;2.73;1.27;;;;;;;;;;5052439;28;20961;-71
2022/01/31 11:20:39;;;;;;;3.47;1.30;;;;;;;;;;5052521;28;20464;-71
2022/01/31 11:23:08;;;;;;;3.10;1.20;;;;;;;;;;5053465;28;20541;-71
2022/01/31 11:25:37;;;;;;;1.80;1.23;;;;;;;;;;5052246;28;20530;-71
2022/01/31 11:28:05;;;;;;;1.50;1.13;;;;;;;;;;5052257;28;20539;-71
2022/01/31 11:30:33;;;;;;;1.23;0.90;;;;;;;;;;5052270;28;20446;-71
2022/01/31 11:33:01;;;;;;;1.93;1.20;;;;;;;;;;5052704;28;20485;-71
2022/01/31 11:35:29;;;;;;;5.63;1.10;;;;;;;;;;5052325;28;20469;-71
2022/01/31 11:37:56;;;;;;;3.33;1.30;;;;;;;;;;5052675;28;20554;-71
2022/01/31 11:40:23;;;;;;;3.27;1.57;;;;;;;;;;5052802;28;20821;-68
2022/01/31 11:42:51;;;;;;;1.57;1.20;;;;;;;;;;5052657;28;20529;-71
2022/01/31 11:45:20;;;;;;;1.67;0.93;;;;;;;;;;5052687;28;20504;-71
2022/01/31 11:47:50;;;;;;;2.30;1.40;;;;;;;;;;5051852;28;20541;-71
2022/01/31 11:50:18;;;;;;;2.60;1.00;;;;;;;;;;5052974;28;21066;-71
2022/01/31 11:52:46;;;;;;;3.63;1.40;;;;;;;;;;5050800;28;20569;-71
2022/01/31 11:55:15;;;;;;;2.93;1.30;;;;;;;;;;5052571;28;20454;-71
2022/01/31 11:57:46;;;;;;;1.67;1.00;;;;;;;;;;5050970;28;20533;-71
2022/01/31 12:00:15;;;;;;;1.00;0.80;;;;;;;;;;5052503;28;20457;-71
2022/01/31 12:02:44;;;;;;;6.07;1.30;;;;;;;;;;5051035;28;20450;-71
2022/01/31 12:05:16;;;;;;;2.60;1.10;;;;;;;;;;5052045;28;20545;-71
2022/01/31 12:07:44;;;;;;;4.90;1.30;;;;;;;;;;5050892;28;21079;-72
2022/01/31 12:10:18;;;;;;;1.13;0.80;;;;;;;;;;5052054;28;20781;-71
2022/01/31 12:12:51;;;;;;;2.70;1.20;;;;;;;;;;5051024;28;20469;-71
2022/01/31 12:15:44;;;;;;;4.47;1.20;;;;;;;;;;5052134;28;20453;-72
2022/01/31 12:18:41;;;;;;;4.23;1.43;;;;;;;;;;5051874;28;20445;-71
2022/01/31 12:23:57;;;;;;;3.90;1.30;;;;;;;;;;5052081;28;20422;-71
2022/01/31 12:26:28;;;;;;;4.30;1.30;;;;;;;;;;5051270;28;20546;-69
2022/01/31 12:28:56;;;;;;;1.07;0.97;;;;;;;;;;5051365;28;20974;-71
2022/01/31 12:31:24;;;;;;;2.70;0.90;;;;;;;;;;5051554;28;20473;-69
2022/01/31 12:33:51;;;;;;;1.83;1.17;;;;;;;;;;5051126;28;20565;-71
2022/01/31 12:36:47;;;;;;;2.00;0.80;;;;;;;;;;5051345;28;20449;-71
2022/01/31 12:39:38;;;;;;;4.37;1.30;;;;;;;;;;5051581;28;20454;-70
2022/01/31 12:42:42;;;;;;;3.13;1.13;;;;;;;;;;5051473;28;20446;-71
2022/01/31 12:45:09;;;;;;;2.23;1.13;;;;;;;;;;5051790;28;20807;-71
2022/01/31 12:47:37;;;;;;;2.73;1.20;;;;;;;;;;5050486;28;20442;-70
2022/01/31 12:50:21;;;;;;;3.30;1.13;;;;;;;;;;5051582;28;20455;-71
2022/01/31 12:52:49;;;;;;;4.83;1.23;;;;;;;;;;5050375;28;20882;-70
2022/01/31 12:55:17;;;;;;;5.33;1.30;;;;;;;;;;5051541;28;20545;-70
2022/01/31 12:57:48;;;;;;;3.97;1.00;;;;;;;;;;5050130;28;20454;-71
2022/01/31 13:00:15;;;;;;;2.10;1.00;;;;;;;;;;5051420;28;20819;-70
2022/01/31 13:02:48;;;;;;;2.87;1.40;;;;;;;;;;5050255;28;20450;-70
2022/01/31 13:05:16;;;;;;;1.20;1.10;;;;;;;;;;5050321;28;20439;-71
2022/01/31 13:07:43;;;;;;;4.03;1.30;;;;;;;;;;5049718;28;20831;-70
2022/01/31 13:10:12;;;;;;;8.77;1.33;;;;;;;;;;5051604;28;20860;-71
2022/01/31 13:12:40;;;;;;;4.20;1.57;;;;;;;;;;5050052;28;20514;-71
2022/01/31 13:15:07;;;;;;;1.13;1.00;;;;;;;;;;5051321;28;20474;-71
2022/01/31 13:17:36;;;;;;;1.93;1.30;;;;;;;;;;5050055;28;20443;-71
2022/01/31 13:20:04;;;;;;;3.97;1.37;;;;;;;;;;5050543;28;20458;-71
2022/01/31 13:22:35;;;;;;;2.97;1.70;;;;;;;;;;5050532;28;20512;-71
2022/01/31 13:25:04;;;;;;;4.60;1.20;;;;;;;;;;5056852;28;20515;-71
2022/01/31 13:27:33;;;;;;;4.10;1.50;;;;;;;;;;5062652;28;20446;-71
2022/01/31 13:30:01;;;;;;;2.40;1.67;;;;;;;;;;5059172;28;20489;-71
2022/01/31 13:32:30;;;;;;;4.30;1.23;;;;;;;;;;5050626;28;20458;-69
2022/01/31 13:34:58;;;;;;;6.20;1.23;;;;;;;;;;5050906;28;20449;-70
2022/01/31 13:37:28;;;;;;;3.20;1.20;;;;;;;;;;5050139;28;20496;-68
2022/01/31 13:39:56;;;;;;;2.20;1.43;;;;;;;;;;5050773;28;20545;-70
2022/01/31 13:42:26;;;;;;;7.87;1.50;;;;;;;;;;5050409;28;20438;-70
2022/01/31 13:44:56;;;;;;;3.33;1.10;;;;;;;;;;5050663;28;20450;-70
2022/01/31 13:47:33;;;;;;;4.47;1.57;;;;;;;;;;5050576;28;20452;-71
2022/01/31 13:50:03;;;;;;;3.37;1.13;;;;;;;;;;5050846;28;20450;-70
2022/01/31 13:52:33;;;;;;;3.70;1.33;;;;;;;;;;5050160;28;21250;-70
2022/01/31 13:55:01;;;;;;;1.47;0.97;;;;;;;;;;5050805;28;20530;-70
2022/01/31 13:57:28;;;;;;;4.50;1.10;;;;;;;;;;5049529;28;20548;-68
2022/01/31 13:59:56;;;;;;;2.67;1.40;;;;;;;;;;5050637;28;20541;-70
2022/01/31 14:02:24;;;;;;;3.60;1.00;;;;;;;;;;5050391;28;20577;-70
2022/01/31 14:04:51;;;;;;;2.00;1.20;;;;;;;;;;5049541;28;20500;-70
2022/01/31 14:07:26;;;;;;;3.13;1.13;;;;;;;;;;5049964;28;20461;-70
2022/01/31 14:09:53;;;;;;;3.73;1.20;;;;;;;;;;5050481;28;20491;-70
2022/01/31 14:12:21;;;;;;;1.00;0.87;;;;;;;;;;5050009;28;20815;-70
2022/01/31 14:14:48;;;;;;;2.70;0.90;;;;;;;;;;5049625;28;20665;-69
2022/01/31 14:17:17;;;;;;;5.40;1.40;;;;;;;;;;5053207;28;20453;-69
2022/01/31 14:19:44;;;;;;;5.57;1.60;;;;;;;;;;5053110;28;20970;-69
2022/01/31 14:22:11;;;;;;;2.07;1.10;;;;;;;;;;5053894;28;20964;-69
2022/01/31 14:24:38;;;;;;;1.83;1.10;;;;;;;;;;5053589;28;20454;-70
2022/01/31 14:27:05;;;;;;;1.50;1.40;;;;;;;;;;5054226;28;20857;-70
2022/01/31 14:29:36;;;;;;;2.30;1.10;;;;;;;;;;5053600;28;20453;-69
2022/01/31 14:32:03;;;;;;;1.80;0.93;;;;;;;;;;5054276;28;20442;-69
2022/01/31 14:34:31;;;;;;;2.97;1.27;;;;;;;;;;5053184;28;20518;-70
2022/01/31 14:37:00;;;;;;;3.60;1.63;;;;;;;;;;5040368;28;20997;-70
2022/01/31 14:39:35;;;;;;;5.13;0.90;;;;;;;;;;5053707;28;20637;-68
2022/01/31 14:42:25;;;;;;;1.50;1.10;;;;;;;;;;5042042;28;20930;-70
2022/01/31 14:47:41;;;;;;;6.90;1.83;;;;;;;;;;5052531;28;20422;-70
2022/01/31 14:50:11;;;;;;;2.47;0.87;;;;;;;;;;5053823;28;20446;-70
2022/01/31 14:52:38;;;;;;;2.30;0.90;;;;;;;;;;5052979;28;20541;-69
2022/01/31 14:55:08;;;;;;;4.40;1.40;;;;;;;;;;5053712;28;20493;-69
2022/01/31 14:57:35;;;;;;;1.40;0.93;;;;;;;;;;5052414;28;20457;-69
2022/01/31 15:00:02;;;;;;;1.53;0.90;;;;;;;;;;5053259;28;20541;-68
2022/01/31 15:02:32;;;;;;;2.90;1.50;;;;;;;;;;5052607;28;20459;-68
2022/01/31 15:05:02;;;;;;;2.40;1.00;;;;;;;;;;5053575;28;20446;-68
2022/01/31 15:07:31;;;;;;;3.27;1.43;;;;;;;;;;5051797;28;20462;-67
2022/01/31 15:09:58;;;;;;;2.70;1.13;;;;;;;;;;5053009;28;20518;-68
2022/01/31 15:12:25;;;;;;;6.80;1.70;;;;;;;;;;5052990;28;20888;-67
2022/01/31 15:14:52;;;;;;;3.57;1.57;;;;;;;;;;5053691;28;20489;-68
2022/01/31 15:17:21;;;;;;;3.13;1.47;;;;;;;;;;5053081;28;20529;-68
2022/01/31 15:19:48;;;;;;;1.70;1.13;;;;;;;;;;5052761;28;20546;-67